sensor_id;sensor_type;location;lat;lon;timestamp;P1;durP1;ratioP1;P2;durP2;ratioP2
74568;SDS011;63052;50.266;7.968;2022-10-14T00:03:18;13.07;;;4.77;;
74568;SDS011;63052;50.266;7.968;2022-10-14T00:13:20;8.27;;;4.70;;
74568;SDS011;63052;50.266;7.968;2022-10-14T00:23:23;8.37;;;4.17;;
74568;SDS011;63052;50.266;7.968;2022-10-14T00:33:26;10.10;;;4.17;;
74568;SDS011;63052;50.266;7.968;2022-10-14T00:43:29;14.63;;;4.30;;
74568;SDS011;63052;50.266;7.968;2022-10-14T00:53:33;9.03;;;4.00;;
74568;SDS011;63052;50.266;7.968;2022-10-14T01:03:36;10.00;;;4.20;;
74568;SDS011;63052;50.266;7.968;2022-10-14T01:13:41;13.47;;;4.00;;
74568;SDS011;63052;50.266;7.968;2022-10-14T01:34:24;7.93;;;3.77;;
74568;SDS011;63052;50.266;7.968;2022-10-14T01:44:28;8.80;;;3.40;;
74568;SDS011;63052;50.266;7.968;2022-10-14T01:54:33;7.47;;;3.57;;
74568;SDS011;63052;50.266;7.968;2022-10-14T02:04:38;7.00;;;3.80;;
74568;SDS011;63052;50.266;7.968;2022-10-14T02:25:08;7.77;;;3.63;;
74568;SDS011;63052;50.266;7.968;2022-10-14T02:35:13;5.20;;;3.23;;
74568;SDS011;63052;50.266;7.968;2022-10-14T02:45:17;11.13;;;3.47;;
74568;SDS011;63052;50.266;7.968;2022-10-14T02:55:21;6.93;;;2.83;;
74568;SDS011;63052;50.266;7.968;2022-10-14T03:05:23;5.20;;;2.70;;
74568;SDS011;63052;50.266;7.968;2022-10-14T03:15:26;8.37;;;3.00;;
74568;SDS011;63052;50.266;7.968;2022-10-14T03:25:28;4.23;;;2.90;;
74568;SDS011;63052;50.266;7.968;2022-10-14T03:35:31;5.50;;;2.70;;
74568;SDS011;63052;50.266;7.968;2022-10-14T03:45:34;8.50;;;2.93;;
74568;SDS011;63052;50.266;7.968;2022-10-14T03:55:36;5.67;;;2.23;;
74568;SDS011;63052;50.266;7.968;2022-10-14T04:05:39;6.93;;;2.53;;
74568;SDS011;63052;50.266;7.968;2022-10-14T04:15:41;5.20;;;2.57;;
74568;SDS011;63052;50.266;7.968;2022-10-14T04:25:44;5.83;;;2.73;;
74568;SDS011;63052;50.266;7.968;2022-10-14T04:35:46;6.57;;;2.77;;
74568;SDS011;63052;50.266;7.968;2022-10-14T04:45:49;4.73;;;2.27;;
74568;SDS011;63052;50.266;7.968;2022-10-14T04:55:51;7.73;;;3.67;;
74568;SDS011;63052;50.266;7.968;2022-10-14T05:05:54;4.27;;;2.83;;
74568;SDS011;63052;50.266;7.968;2022-10-14T05:15:56;9.03;;;2.73;;
74568;SDS011;63052;50.266;7.968;2022-10-14T05:25:59;4.33;;;2.80;;
74568;SDS011;63052;50.266;7.968;2022-10-14T05:36:02;5.33;;;3.10;;
74568;SDS011;63052;50.266;7.968;2022-10-14T05:46:04;5.37;;;3.27;;
74568;SDS011;63052;50.266;7.968;2022-10-14T05:56:08;6.63;;;3.67;;
74568;SDS011;63052;50.266;7.968;2022-10-14T06:06:13;9.17;;;3.40;;
74568;SDS011;63052;50.266;7.968;2022-10-14T06:16:16;6.70;;;3.07;;
74568;SDS011;63052;50.266;7.968;2022-10-14T06:26:18;13.73;;;5.03;;
74568;SDS011;63052;50.266;7.968;2022-10-14T06:36:21;19.03;;;6.40;;
74568;SDS011;63052;50.266;7.968;2022-10-14T06:46:23;21.23;;;6.80;;
74568;SDS011;63052;50.266;7.968;2022-10-14T06:56:26;22.73;;;6.60;;
74568;SDS011;63052;50.266;7.968;2022-10-14T07:06:28;17.53;;;8.10;;
74568;SDS011;63052;50.266;7.968;2022-10-14T07:16:31;22.70;;;7.73;;
74568;SDS011;63052;50.266;7.968;2022-10-14T07:26:33;12.63;;;7.30;;
74568;SDS011;63052;50.266;7.968;2022-10-14T07:36:36;19.80;;;7.70;;
74568;SDS011;63052;50.266;7.968;2022-10-14T07:46:39;29.27;;;13.37;;
74568;SDS011;63052;50.266;7.968;2022-10-14T07:56:44;27.83;;;11.37;;
74568;SDS011;63052;50.266;7.968;2022-10-14T08:06:49;24.23;;;11.10;;
74568;SDS011;63052;50.266;7.968;2022-10-14T08:16:52;18.50;;;7.87;;
74568;SDS011;63052;50.266;7.968;2022-10-14T08:26:55;26.10;;;9.17;;
74568;SDS011;63052;50.266;7.968;2022-10-14T08:37:00;25.60;;;11.80;;
74568;SDS011;63052;50.266;7.968;2022-10-14T08:47:03;18.80;;;8.30;;
74568;SDS011;63052;50.266;7.968;2022-10-14T08:57:11;15.20;;;8.27;;
74568;SDS011;63052;50.266;7.968;2022-10-14T09:07:17;21.37;;;8.70;;
74568;SDS011;63052;50.266;7.968;2022-10-14T09:17:22;32.40;;;9.03;;
74568;SDS011;63052;50.266;7.968;2022-10-14T09:27:27;24.77;;;9.17;;
74568;SDS011;63052;50.266;7.968;2022-10-14T09:37:34;18.20;;;7.67;;
74568;SDS011;63052;50.266;7.968;2022-10-14T09:47:41;15.50;;;7.47;;
74568;SDS011;63052;50.266;7.968;2022-10-14T09:57:55;14.83;;;7.50;;
74568;SDS011;63052;50.266;7.968;2022-10-14T10:08:17;17.33;;;7.93;;
74568;SDS011;63052;50.266;7.968;2022-10-14T10:18:19;13.63;;;7.23;;
74568;SDS011;63052;50.266;7.968;2022-10-14T10:28:27;15.33;;;6.33;;
74568;SDS011;63052;50.266;7.968;2022-10-14T10:38:41;16.70;;;7.00;;
74568;SDS011;63052;50.266;7.968;2022-10-14T11:09:10;14.63;;;8.50;;
74568;SDS011;63052;50.266;7.968;2022-10-14T11:19:35;24.63;;;11.17;;
74568;SDS011;63052;50.266;7.968;2022-10-14T11:29:56;14.73;;;6.63;;
74568;SDS011;63052;50.266;7.968;2022-10-14T11:40:16;15.27;;;8.63;;
74568;SDS011;63052;50.266;7.968;2022-10-14T11:50:22;12.90;;;6.33;;
74568;SDS011;63052;50.266;7.968;2022-10-14T12:00:28;11.37;;;5.83;;
74568;SDS011;63052;50.266;7.968;2022-10-14T12:10:33;9.20;;;5.17;;
74568;SDS011;63052;50.266;7.968;2022-10-14T12:41:31;7.30;;;4.23;;
74568;SDS011;63052;50.266;7.968;2022-10-14T12:51:36;9.03;;;3.83;;
74568;SDS011;63052;50.266;7.968;2022-10-14T13:01:38;8.60;;;4.43;;
74568;SDS011;63052;50.266;7.968;2022-10-14T13:11:45;15.83;;;6.00;;
74568;SDS011;63052;50.266;7.968;2022-10-14T13:21:50;5.37;;;3.07;;
74568;SDS011;63052;50.266;7.968;2022-10-14T13:42:18;3.47;;;2.60;;
74568;SDS011;63052;50.266;7.968;2022-10-14T13:52:25;5.80;;;3.10;;
74568;SDS011;63052;50.266;7.968;2022-10-14T14:02:28;5.80;;;2.97;;
74568;SDS011;63052;50.266;7.968;2022-10-14T14:12:31;10.53;;;2.93;;
74568;SDS011;63052;50.266;7.968;2022-10-14T14:22:34;6.50;;;2.50;;
74568;SDS011;63052;50.266;7.968;2022-10-14T14:32:39;5.00;;;2.47;;
74568;SDS011;63052;50.266;7.968;2022-10-14T14:42:42;7.27;;;2.80;;
74568;SDS011;63052;50.266;7.968;2022-10-14T14:52:46;4.10;;;2.40;;
74568;SDS011;63052;50.266;7.968;2022-10-14T15:02:51;5.37;;;2.20;;
74568;SDS011;63052;50.266;7.968;2022-10-14T15:12:57;8.70;;;2.60;;
74568;SDS011;63052;50.266;7.968;2022-10-14T15:23:00;9.37;;;2.93;;
74568;SDS011;63052;50.266;7.968;2022-10-14T15:33:17;4.90;;;2.87;;
74568;SDS011;63052;50.266;7.968;2022-10-14T15:43:22;5.23;;;2.40;;
74568;SDS011;63052;50.266;7.968;2022-10-14T15:53:26;4.00;;;2.30;;
74568;SDS011;63052;50.266;7.968;2022-10-14T16:03:29;5.03;;;2.57;;
74568;SDS011;63052;50.266;7.968;2022-10-14T16:13:31;6.60;;;2.93;;
74568;SDS011;63052;50.266;7.968;2022-10-14T16:23:34;4.63;;;2.73;;
74568;SDS011;63052;50.266;7.968;2022-10-14T16:33:37;6.77;;;2.40;;
74568;SDS011;63052;50.266;7.968;2022-10-14T16:43:40;5.93;;;2.23;;
74568;SDS011;63052;50.266;7.968;2022-10-14T16:53:42;3.43;;;1.70;;
74568;SDS011;63052;50.266;7.968;2022-10-14T17:03:46;7.83;;;1.93;;
74568;SDS011;63052;50.266;7.968;2022-10-14T17:13:51;4.00;;;2.30;;
74568;SDS011;63052;50.266;7.968;2022-10-14T17:23:58;4.87;;;2.30;;
74568;SDS011;63052;50.266;7.968;2022-10-14T17:34:01;6.33;;;2.07;;
74568;SDS011;63052;50.266;7.968;2022-10-14T17:44:04;6.70;;;2.47;;
74568;SDS011;63052;50.266;7.968;2022-10-14T17:54:08;7.37;;;2.00;;
74568;SDS011;63052;50.266;7.968;2022-10-14T18:04:11;10.43;;;2.93;;
74568;SDS011;63052;50.266;7.968;2022-10-14T18:14:14;5.03;;;1.60;;
74568;SDS011;63052;50.266;7.968;2022-10-14T18:24:16;8.43;;;2.23;;
74568;SDS011;63052;50.266;7.968;2022-10-14T18:34:19;8.40;;;2.10;;
74568;SDS011;63052;50.266;7.968;2022-10-14T18:44:24;8.57;;;2.00;;
74568;SDS011;63052;50.266;7.968;2022-10-14T18:54:26;9.83;;;1.70;;
74568;SDS011;63052;50.266;7.968;2022-10-14T19:04:30;5.20;;;1.60;;
74568;SDS011;63052;50.266;7.968;2022-10-14T19:14:33;4.10;;;1.50;;
74568;SDS011;63052;50.266;7.968;2022-10-14T19:24:36;16.03;;;2.60;;
74568;SDS011;63052;50.266;7.968;2022-10-14T19:34:38;16.90;;;4.03;;
74568;SDS011;63052;50.266;7.968;2022-10-14T19:44:41;13.33;;;1.90;;
74568;SDS011;63052;50.266;7.968;2022-10-14T19:54:44;14.37;;;3.17;;
74568;SDS011;63052;50.266;7.968;2022-10-14T20:04:46;11.17;;;2.40;;
74568;SDS011;63052;50.266;7.968;2022-10-14T20:14:49;11.07;;;3.67;;
74568;SDS011;63052;50.266;7.968;2022-10-14T20:24:51;15.43;;;3.40;;
74568;SDS011;63052;50.266;7.968;2022-10-14T20:34:54;13.87;;;3.63;;
74568;SDS011;63052;50.266;7.968;2022-10-14T20:44:56;12.03;;;3.10;;
74568;SDS011;63052;50.266;7.968;2022-10-14T20:54:58;12.30;;;2.53;;
74568;SDS011;63052;50.266;7.968;2022-10-14T21:05:01;6.30;;;2.83;;
74568;SDS011;63052;50.266;7.968;2022-10-14T21:15:04;14.80;;;2.80;;
74568;SDS011;63052;50.266;7.968;2022-10-14T21:25:07;11.13;;;2.40;;
74568;SDS011;63052;50.266;7.968;2022-10-14T21:35:10;24.47;;;3.87;;
74568;SDS011;63052;50.266;7.968;2022-10-14T21:45:12;10.90;;;3.27;;
74568;SDS011;63052;50.266;7.968;2022-10-14T21:55:15;13.17;;;2.50;;
74568;SDS011;63052;50.266;7.968;2022-10-14T22:05:17;7.33;;;1.83;;
74568;SDS011;63052;50.266;7.968;2022-10-14T22:15:20;8.27;;;2.73;;
74568;SDS011;63052;50.266;7.968;2022-10-14T22:25:23;12.17;;;2.93;;
74568;SDS011;63052;50.266;7.968;2022-10-14T22:35:25;8.53;;;2.50;;
74568;SDS011;63052;50.266;7.968;2022-10-14T22:45:28;8.03;;;2.50;;
74568;SDS011;63052;50.266;7.968;2022-10-14T22:55:30;9.17;;;2.30;;
74568;SDS011;63052;50.266;7.968;2022-10-14T23:05:33;11.13;;;2.53;;
74568;SDS011;63052;50.266;7.968;2022-10-14T23:15:35;12.53;;;2.40;;
74568;SDS011;63052;50.266;7.968;2022-10-14T23:25:38;10.17;;;2.30;;
74568;SDS011;63052;50.266;7.968;2022-10-14T23:35:41;3.70;;;1.50;;
74568;SDS011;63052;50.266;7.968;2022-10-14T23:45:44;5.43;;;1.90;;
74568;SDS011;63052;50.266;7.968;2022-10-14T23:55:46;3.00;;;1.50;;
